sensor_id;sensor_type;location;lat;lon;timestamp;temperature;humidity
38209;DHT22;24016;52.102;11.584;2023-06-14T00:01:18;13.70;99.90
38209;DHT22;24016;52.102;11.584;2023-06-14T00:03:45;13.60;99.90
38209;DHT22;24016;52.102;11.584;2023-06-14T00:06:13;13.60;99.90
38209;DHT22;24016;52.102;11.584;2023-06-14T00:08:38;13.50;99.90
38209;DHT22;24016;52.102;11.584;2023-06-14T00:11:05;13.50;99.90
38209;DHT22;24016;52.102;11.584;2023-06-14T00:13:31;13.50;99.90
38209;DHT22;24016;52.102;11.584;2023-06-14T00:15:56;13.50;99.90
38209;DHT22;24016;52.102;11.584;2023-06-14T00:18:23;13.40;99.90
38209;DHT22;24016;52.102;11.584;2023-06-14T00:20:52;13.40;99.90
38209;DHT22;24016;52.102;11.584;2023-06-14T00:23:17;13.40;99.90
38209;DHT22;24016;52.102;11.584;2023-06-14T00:25:43;13.30;99.90
38209;DHT22;24016;52.102;11.584;2023-06-14T00:28:09;13.30;99.90
38209;DHT22;24016;52.102;11.584;2023-06-14T00:30:34;13.20;99.90
38209;DHT22;24016;52.102;11.584;2023-06-14T00:33:00;13.20;99.90
38209;DHT22;24016;52.102;11.584;2023-06-14T00:35:26;13.10;99.90
38209;DHT22;24016;52.102;11.584;2023-06-14T00:37:52;13.10;99.90
38209;DHT22;24016;52.102;11.584;2023-06-14T00:40:17;13.10;99.90
38209;DHT22;24016;52.102;11.584;2023-06-14T00:42:43;13.10;99.90
38209;DHT22;24016;52.102;11.584;2023-06-14T00:45:09;13.00;99.90
38209;DHT22;24016;52.102;11.584;2023-06-14T00:47:37;13.00;99.90
38209;DHT22;24016;52.102;11.584;2023-06-14T00:50:06;13.00;99.90
38209;DHT22;24016;52.102;11.584;2023-06-14T00:52:32;12.90;99.90
38209;DHT22;24016;52.102;11.584;2023-06-14T00:54:58;12.90;99.90
38209;DHT22;24016;52.102;11.584;2023-06-14T00:57:24;12.90;99.90
38209;DHT22;24016;52.102;11.584;2023-06-14T00:59:50;12.90;99.90
38209;DHT22;24016;52.102;11.584;2023-06-14T01:02:17;12.80;99.90
38209;DHT22;24016;52.102;11.584;2023-06-14T01:04:45;12.80;99.90
38209;DHT22;24016;52.102;11.584;2023-06-14T01:15:57;12.70;99.90
38209;DHT22;24016;52.102;11.584;2023-06-14T01:18:23;12.70;99.90
38209;DHT22;24016;52.102;11.584;2023-06-14T01:20:51;12.70;99.90
38209;DHT22;24016;52.102;11.584;2023-06-14T01:23:21;12.70;99.90
38209;DHT22;24016;52.102;11.584;2023-06-14T01:25:48;12.60;99.90
38209;DHT22;24016;52.102;11.584;2023-06-14T01:28:18;12.60;99.90
38209;DHT22;24016;52.102;11.584;2023-06-14T01:33:24;12.60;99.90
38209;DHT22;24016;52.102;11.584;2023-06-14T01:35:53;12.60;99.90
38209;DHT22;24016;52.102;11.584;2023-06-14T01:38:24;12.70;99.90
38209;DHT22;24016;52.102;11.584;2023-06-14T01:40:50;12.70;99.90
38209;DHT22;24016;52.102;11.584;2023-06-14T01:43:19;12.60;99.90
38209;DHT22;24016;52.102;11.584;2023-06-14T01:45:47;12.60;99.90
38209;DHT22;24016;52.102;11.584;2023-06-14T01:48:14;12.60;99.90
38209;DHT22;24016;52.102;11.584;2023-06-14T01:50:42;12.40;99.90
38209;DHT22;24016;52.102;11.584;2023-06-14T01:53:08;12.50;99.90
38209;DHT22;24016;52.102;11.584;2023-06-14T01:55:34;12.50;99.90
38209;DHT22;24016;52.102;11.584;2023-06-14T01:58:03;12.40;99.90
38209;DHT22;24016;52.102;11.584;2023-06-14T02:00:28;12.40;99.90
38209;DHT22;24016;52.102;11.584;2023-06-14T02:02:54;12.40;99.90
38209;DHT22;24016;52.102;11.584;2023-06-14T02:05:19;12.30;99.90
38209;DHT22;24016;52.102;11.584;2023-06-14T02:07:46;12.40;99.90
38209;DHT22;24016;52.102;11.584;2023-06-14T02:10:11;12.30;99.90
38209;DHT22;24016;52.102;11.584;2023-06-14T02:12:37;12.30;99.90
38209;DHT22;24016;52.102;11.584;2023-06-14T02:15:03;12.30;99.90
38209;DHT22;24016;52.102;11.584;2023-06-14T02:17:29;12.30;99.90
38209;DHT22;24016;52.102;11.584;2023-06-14T02:19:54;12.30;99.90
38209;DHT22;24016;52.102;11.584;2023-06-14T02:22:22;12.30;99.90
38209;DHT22;24016;52.102;11.584;2023-06-14T02:24:48;12.20;99.90
38209;DHT22;24016;52.102;11.584;2023-06-14T02:27:13;12.20;99.90
38209;DHT22;24016;52.102;11.584;2023-06-14T02:29:39;12.20;99.90
38209;DHT22;24016;52.102;11.584;2023-06-14T02:32:05;12.10;99.90
38209;DHT22;24016;52.102;11.584;2023-06-14T02:34:33;12.10;99.90
38209;DHT22;24016;52.102;11.584;2023-06-14T02:36:58;12.00;99.90
38209;DHT22;24016;52.102;11.584;2023-06-14T02:39:24;12.00;99.90
38209;DHT22;24016;52.102;11.584;2023-06-14T02:41:49;11.90;99.90
38209;DHT22;24016;52.102;11.584;2023-06-14T02:44:17;12.00;99.90
38209;DHT22;24016;52.102;11.584;2023-06-14T02:46:43;12.00;99.90
38209;DHT22;24016;52.102;11.584;2023-06-14T02:49:09;12.00;99.90
38209;DHT22;24016;52.102;11.584;2023-06-14T02:51:35;12.00;99.90
38209;DHT22;24016;52.102;11.584;2023-06-14T02:54:00;12.00;99.90
38209;DHT22;24016;52.102;11.584;2023-06-14T02:56:26;12.00;99.90
38209;DHT22;24016;52.102;11.584;2023-06-14T02:58:53;12.00;99.90
38209;DHT22;24016;52.102;11.584;2023-06-14T03:01:18;12.00;99.90
38209;DHT22;24016;52.102;11.584;2023-06-14T03:03:44;12.00;99.90
38209;DHT22;24016;52.102;11.584;2023-06-14T03:06:10;12.10;99.90
38209;DHT22;24016;52.102;11.584;2023-06-14T03:08:38;12.00;99.90
38209;DHT22;24016;52.102;11.584;2023-06-14T03:11:04;12.00;99.90
38209;DHT22;24016;52.102;11.584;2023-06-14T03:13:31;12.00;99.90
38209;DHT22;24016;52.102;11.584;2023-06-14T03:15:57;12.10;99.90
38209;DHT22;24016;52.102;11.584;2023-06-14T03:18:23;12.10;99.90
38209;DHT22;24016;52.102;11.584;2023-06-14T03:20:48;12.10;99.90
38209;DHT22;24016;52.102;11.584;2023-06-14T03:23:16;12.00;99.90
38209;DHT22;24016;52.102;11.584;2023-06-14T03:25:42;12.00;99.90
38209;DHT22;24016;52.102;11.584;2023-06-14T03:28:07;12.00;99.90
38209;DHT22;24016;52.102;11.584;2023-06-14T03:30:33;12.00;99.90
38209;DHT22;24016;52.102;11.584;2023-06-14T03:32:59;12.00;99.90
38209;DHT22;24016;52.102;11.584;2023-06-14T03:35:26;12.00;99.90
38209;DHT22;24016;52.102;11.584;2023-06-14T03:37:52;12.00;99.90
38209;DHT22;24016;52.102;11.584;2023-06-14T03:40:18;12.00;99.90
38209;DHT22;24016;52.102;11.584;2023-06-14T03:42:45;12.00;99.90
38209;DHT22;24016;52.102;11.584;2023-06-14T03:45:14;12.10;99.90
38209;DHT22;24016;52.102;11.584;2023-06-14T03:47:39;12.10;99.90
38209;DHT22;24016;52.102;11.584;2023-06-14T03:50:05;12.10;99.90
38209;DHT22;24016;52.102;11.584;2023-06-14T03:52:31;12.10;99.90
38209;DHT22;24016;52.102;11.584;2023-06-14T03:54:58;12.10;99.90
38209;DHT22;24016;52.102;11.584;2023-06-14T03:57:25;12.10;99.90
38209;DHT22;24016;52.102;11.584;2023-06-14T03:59:51;12.10;99.90
38209;DHT22;24016;52.102;11.584;2023-06-14T04:02:17;12.10;99.90
38209;DHT22;24016;52.102;11.584;2023-06-14T04:04:43;12.10;99.90
38209;DHT22;24016;52.102;11.584;2023-06-14T04:07:11;12.10;99.90
38209;DHT22;24016;52.102;11.584;2023-06-14T04:09:37;12.20;99.90
38209;DHT22;24016;52.102;11.584;2023-06-14T04:12:03;12.20;99.90
38209;DHT22;24016;52.102;11.584;2023-06-14T04:14:29;12.20;99.90
38209;DHT22;24016;52.102;11.584;2023-06-14T04:16:56;12.20;99.90
38209;DHT22;24016;52.102;11.584;2023-06-14T04:19:22;12.30;99.90
38209;DHT22;24016;52.102;11.584;2023-06-14T04:21:47;12.30;99.90
38209;DHT22;24016;52.102;11.584;2023-06-14T04:24:13;12.40;99.90
38209;DHT22;24016;52.102;11.584;2023-06-14T04:26:42;12.40;99.90
38209;DHT22;24016;52.102;11.584;2023-06-14T04:29:10;12.50;99.90
38209;DHT22;24016;52.102;11.584;2023-06-14T04:31:40;12.50;99.90
38209;DHT22;24016;52.102;11.584;2023-06-14T04:34:05;12.60;99.90
38209;DHT22;24016;52.102;11.584;2023-06-14T04:36:35;12.60;99.90
38209;DHT22;24016;52.102;11.584;2023-06-14T04:39:04;12.60;99.90
38209;DHT22;24016;52.102;11.584;2023-06-14T04:41:30;12.70;99.90
38209;DHT22;24016;52.102;11.584;2023-06-14T04:43:57;12.70;99.90
38209;DHT22;24016;52.102;11.584;2023-06-14T04:46:27;12.80;99.90
38209;DHT22;24016;52.102;11.584;2023-06-14T04:48:54;12.80;99.90
38209;DHT22;24016;52.102;11.584;2023-06-14T04:51:19;12.80;99.90
38209;DHT22;24016;52.102;11.584;2023-06-14T04:53:47;12.90;99.90
38209;DHT22;24016;52.102;11.584;2023-06-14T04:56:15;12.90;99.90
38209;DHT22;24016;52.102;11.584;2023-06-14T04:58:40;13.00;99.90
38209;DHT22;24016;52.102;11.584;2023-06-14T05:01:06;13.00;99.90
38209;DHT22;24016;52.102;11.584;2023-06-14T05:03:34;13.10;99.90
38209;DHT22;24016;52.102;11.584;2023-06-14T05:06:00;13.10;99.90
38209;DHT22;24016;52.102;11.584;2023-06-14T05:08:26;13.20;99.90
38209;DHT22;24016;52.102;11.584;2023-06-14T05:10:52;13.30;99.90
38209;DHT22;24016;52.102;11.584;2023-06-14T05:13:18;13.30;99.90
38209;DHT22;24016;52.102;11.584;2023-06-14T05:15:43;13.40;99.90
38209;DHT22;24016;52.102;11.584;2023-06-14T05:18:09;13.50;99.90
38209;DHT22;24016;52.102;11.584;2023-06-14T05:20:35;13.50;99.90
38209;DHT22;24016;52.102;11.584;2023-06-14T05:23:02;13.60;99.90
38209;DHT22;24016;52.102;11.584;2023-06-14T05:25:28;13.60;99.90
38209;DHT22;24016;52.102;11.584;2023-06-14T05:27:54;13.60;99.90
38209;DHT22;24016;52.102;11.584;2023-06-14T05:30:19;13.70;99.90
38209;DHT22;24016;52.102;11.584;2023-06-14T05:32:45;13.70;99.90
38209;DHT22;24016;52.102;11.584;2023-06-14T05:35:10;13.80;99.90
38209;DHT22;24016;52.102;11.584;2023-06-14T05:37:36;13.90;99.90
38209;DHT22;24016;52.102;11.584;2023-06-14T05:40:03;14.00;99.90
38209;DHT22;24016;52.102;11.584;2023-06-14T05:42:31;14.10;99.90
38209;DHT22;24016;52.102;11.584;2023-06-14T05:44:57;14.20;99.90
38209;DHT22;24016;52.102;11.584;2023-06-14T05:47:22;14.20;99.90
38209;DHT22;24016;52.102;11.584;2023-06-14T05:49:48;14.30;99.90
38209;DHT22;24016;52.102;11.584;2023-06-14T05:52:13;14.40;99.90
38209;DHT22;24016;52.102;11.584;2023-06-14T05:54:39;14.50;99.90
38209;DHT22;24016;52.102;11.584;2023-06-14T05:57:05;14.60;99.90
38209;DHT22;24016;52.102;11.584;2023-06-14T05:59:31;14.70;99.90
38209;DHT22;24016;52.102;11.584;2023-06-14T06:01:57;14.80;99.90
38209;DHT22;24016;52.102;11.584;2023-06-14T06:04:23;14.90;99.90
38209;DHT22;24016;52.102;11.584;2023-06-14T06:06:48;14.90;99.90
38209;DHT22;24016;52.102;11.584;2023-06-14T06:09:14;15.00;99.90
38209;DHT22;24016;52.102;11.584;2023-06-14T06:11:40;15.10;99.90
38209;DHT22;24016;52.102;11.584;2023-06-14T06:14:05;15.20;99.90
38209;DHT22;24016;52.102;11.584;2023-06-14T06:16:32;15.20;99.90
38209;DHT22;24016;52.102;11.584;2023-06-14T06:18:58;15.30;99.90
38209;DHT22;24016;52.102;11.584;2023-06-14T06:21:23;15.40;99.90
38209;DHT22;24016;52.102;11.584;2023-06-14T06:23:49;15.50;99.90
38209;DHT22;24016;52.102;11.584;2023-06-14T06:26:14;15.60;99.90
38209;DHT22;24016;52.102;11.584;2023-06-14T06:28:40;15.60;99.90
38209;DHT22;24016;52.102;11.584;2023-06-14T06:31:06;15.60;99.90
38209;DHT22;24016;52.102;11.584;2023-06-14T06:33:31;15.70;99.90
38209;DHT22;24016;52.102;11.584;2023-06-14T06:35:57;15.80;99.90
38209;DHT22;24016;52.102;11.584;2023-06-14T06:38:23;15.80;99.90
38209;DHT22;24016;52.102;11.584;2023-06-14T06:40:48;15.90;99.90
38209;DHT22;24016;52.102;11.584;2023-06-14T06:43:14;16.00;99.90
38209;DHT22;24016;52.102;11.584;2023-06-14T06:45:40;16.00;99.90
38209;DHT22;24016;52.102;11.584;2023-06-14T06:48:05;16.00;99.90
38209;DHT22;24016;52.102;11.584;2023-06-14T06:50:31;16.10;99.90
38209;DHT22;24016;52.102;11.584;2023-06-14T06:52:57;16.20;99.90
38209;DHT22;24016;52.102;11.584;2023-06-14T06:55:23;16.30;99.90
38209;DHT22;24016;52.102;11.584;2023-06-14T06:57:48;16.30;99.90
38209;DHT22;24016;52.102;11.584;2023-06-14T07:00:15;16.40;99.90
38209;DHT22;24016;52.102;11.584;2023-06-14T07:02:42;16.50;99.90
38209;DHT22;24016;52.102;11.584;2023-06-14T07:05:07;16.60;99.90
38209;DHT22;24016;52.102;11.584;2023-06-14T07:07:34;16.70;99.90
38209;DHT22;24016;52.102;11.584;2023-06-14T07:09:59;16.80;99.90
38209;DHT22;24016;52.102;11.584;2023-06-14T07:12:25;16.90;99.90
38209;DHT22;24016;52.102;11.584;2023-06-14T07:14:51;16.90;99.90
38209;DHT22;24016;52.102;11.584;2023-06-14T07:17:17;17.10;99.90
38209;DHT22;24016;52.102;11.584;2023-06-14T07:19:42;17.30;99.90
38209;DHT22;24016;52.102;11.584;2023-06-14T07:22:08;17.30;99.90
38209;DHT22;24016;52.102;11.584;2023-06-14T07:24:33;17.50;99.90
38209;DHT22;24016;52.102;11.584;2023-06-14T07:27:01;17.70;99.90
38209;DHT22;24016;52.102;11.584;2023-06-14T07:29:27;17.80;99.90
38209;DHT22;24016;52.102;11.584;2023-06-14T07:31:53;17.90;99.90
38209;DHT22;24016;52.102;11.584;2023-06-14T07:34:18;18.20;99.90
38209;DHT22;24016;52.102;11.584;2023-06-14T07:36:44;18.30;99.90
38209;DHT22;24016;52.102;11.584;2023-06-14T07:39:10;18.40;99.90
38209;DHT22;24016;52.102;11.584;2023-06-14T07:41:36;18.50;99.90
38209;DHT22;24016;52.102;11.584;2023-06-14T07:44:01;18.60;99.90
38209;DHT22;24016;52.102;11.584;2023-06-14T07:46:27;18.50;99.90
38209;DHT22;24016;52.102;11.584;2023-06-14T07:48:53;18.70;99.90
38209;DHT22;24016;52.102;11.584;2023-06-14T07:51:19;18.80;99.90
38209;DHT22;24016;52.102;11.584;2023-06-14T07:53:44;18.90;99.90
38209;DHT22;24016;52.102;11.584;2023-06-14T07:56:10;19.10;99.90
38209;DHT22;24016;52.102;11.584;2023-06-14T07:58:35;19.20;99.90
38209;DHT22;24016;52.102;11.584;2023-06-14T08:01:01;19.50;99.90
38209;DHT22;24016;52.102;11.584;2023-06-14T08:03:31;19.70;99.20
38209;DHT22;24016;52.102;11.584;2023-06-14T08:05:57;19.90;99.30
38209;DHT22;24016;52.102;11.584;2023-06-14T08:08:23;20.30;98.30
38209;DHT22;24016;52.102;11.584;2023-06-14T08:10:48;21.10;97.50
38209;DHT22;24016;52.102;11.584;2023-06-14T08:13:13;21.70;96.30
38209;DHT22;24016;52.102;11.584;2023-06-14T08:15:39;22.40;94.90
38209;DHT22;24016;52.102;11.584;2023-06-14T08:18:04;22.90;94.00
38209;DHT22;24016;52.102;11.584;2023-06-14T08:20:30;23.20;93.60
38209;DHT22;24016;52.102;11.584;2023-06-14T08:22:57;23.30;92.40
38209;DHT22;24016;52.102;11.584;2023-06-14T08:25:23;23.70;92.10
38209;DHT22;24016;52.102;11.584;2023-06-14T08:27:49;23.60;91.40
38209;DHT22;24016;52.102;11.584;2023-06-14T08:30:15;23.50;91.50
38209;DHT22;24016;52.102;11.584;2023-06-14T08:32:42;23.70;91.50
38209;DHT22;24016;52.102;11.584;2023-06-14T08:35:08;24.30;90.10
38209;DHT22;24016;52.102;11.584;2023-06-14T08:37:38;24.10;90.30
38209;DHT22;24016;52.102;11.584;2023-06-14T08:40:05;24.70;89.40
38209;DHT22;24016;52.102;11.584;2023-06-14T08:42:32;24.90;89.20
38209;DHT22;24016;52.102;11.584;2023-06-14T08:44:58;25.10;87.80
38209;DHT22;24016;52.102;11.584;2023-06-14T08:47:26;25.00;87.50
38209;DHT22;24016;52.102;11.584;2023-06-14T08:49:55;25.00;87.60
38209;DHT22;24016;52.102;11.584;2023-06-14T08:52:22;25.40;87.80
38209;DHT22;24016;52.102;11.584;2023-06-14T08:54:49;25.70;86.60
38209;DHT22;24016;52.102;11.584;2023-06-14T08:57:15;25.40;85.40
38209;DHT22;24016;52.102;11.584;2023-06-14T08:59:46;24.40;87.50
38209;DHT22;24016;52.102;11.584;2023-06-14T09:02:14;24.50;88.80
38209;DHT22;24016;52.102;11.584;2023-06-14T09:04:45;24.80;87.10
38209;DHT22;24016;52.102;11.584;2023-06-14T09:07:11;24.60;87.00
38209;DHT22;24016;52.102;11.584;2023-06-14T09:09:41;24.70;87.50
38209;DHT22;24016;52.102;11.584;2023-06-14T09:12:11;24.40;87.60
38209;DHT22;24016;52.102;11.584;2023-06-14T09:14:37;24.30;87.60
38209;DHT22;24016;52.102;11.584;2023-06-14T09:17:05;24.90;88.40
38209;DHT22;24016;52.102;11.584;2023-06-14T09:19:31;25.50;87.00
38209;DHT22;24016;52.102;11.584;2023-06-14T09:21:56;25.50;86.00
38209;DHT22;24016;52.102;11.584;2023-06-14T09:24:24;25.70;85.50
38209;DHT22;24016;52.102;11.584;2023-06-14T09:26:51;26.00;86.90
38209;DHT22;24016;52.102;11.584;2023-06-14T09:29:17;25.80;84.90
38209;DHT22;24016;52.102;11.584;2023-06-14T09:31:45;25.90;84.80
38209;DHT22;24016;52.102;11.584;2023-06-14T09:34:11;25.70;85.70
38209;DHT22;24016;52.102;11.584;2023-06-14T09:36:39;25.60;84.30
38209;DHT22;24016;52.102;11.584;2023-06-14T09:39:05;25.80;84.90
38209;DHT22;24016;52.102;11.584;2023-06-14T09:41:39;26.10;85.00
38209;DHT22;24016;52.102;11.584;2023-06-14T09:44:07;26.50;84.10
38209;DHT22;24016;52.102;11.584;2023-06-14T09:46:33;26.50;84.30
38209;DHT22;24016;52.102;11.584;2023-06-14T09:49:00;25.90;86.40
38209;DHT22;24016;52.102;11.584;2023-06-14T09:51:26;26.00;85.40
38209;DHT22;24016;52.102;11.584;2023-06-14T09:53:57;25.60;84.50
38209;DHT22;24016;52.102;11.584;2023-06-14T09:56:28;26.00;83.20
38209;DHT22;24016;52.102;11.584;2023-06-14T09:58:58;26.40;84.30
38209;DHT22;24016;52.102;11.584;2023-06-14T10:01:25;26.50;84.00
38209;DHT22;24016;52.102;11.584;2023-06-14T10:03:55;26.50;83.80
38209;DHT22;24016;52.102;11.584;2023-06-14T10:06:25;26.00;83.50
38209;DHT22;24016;52.102;11.584;2023-06-14T10:08:53;25.00;85.40
38209;DHT22;24016;52.102;11.584;2023-06-14T10:11:21;24.30;86.80
38209;DHT22;24016;52.102;11.584;2023-06-14T10:13:47;23.60;89.00
38209;DHT22;24016;52.102;11.584;2023-06-14T10:16:20;23.90;89.30
38209;DHT22;24016;52.102;11.584;2023-06-14T10:18:53;24.90;87.00
38209;DHT22;24016;52.102;11.584;2023-06-14T10:21:33;25.50;86.50
38209;DHT22;24016;52.102;11.584;2023-06-14T10:24:06;26.50;86.60
38209;DHT22;24016;52.102;11.584;2023-06-14T10:26:32;27.10;83.70
38209;DHT22;24016;52.102;11.584;2023-06-14T10:29:07;27.10;84.90
38209;DHT22;24016;52.102;11.584;2023-06-14T10:31:50;27.60;84.20
38209;DHT22;24016;52.102;11.584;2023-06-14T10:34:26;27.50;81.70
38209;DHT22;24016;52.102;11.584;2023-06-14T10:37:06;26.80;82.90
38209;DHT22;24016;52.102;11.584;2023-06-14T10:39:37;26.00;84.20
38209;DHT22;24016;52.102;11.584;2023-06-14T10:42:05;26.00;84.40
38209;DHT22;24016;52.102;11.584;2023-06-14T10:44:42;26.20;85.00
38209;DHT22;24016;52.102;11.584;2023-06-14T10:47:10;25.70;85.40
38209;DHT22;24016;52.102;11.584;2023-06-14T10:49:43;25.40;85.90
38209;DHT22;24016;52.102;11.584;2023-06-14T10:52:17;25.20;86.10
38209;DHT22;24016;52.102;11.584;2023-06-14T10:55:12;25.20;84.50
38209;DHT22;24016;52.102;11.584;2023-06-14T11:00:14;25.90;84.20
38209;DHT22;24016;52.102;11.584;2023-06-14T11:05:28;25.30;84.70
38209;DHT22;24016;52.102;11.584;2023-06-14T11:08:19;25.10;86.90
38209;DHT22;24016;52.102;11.584;2023-06-14T11:10:49;25.50;85.40
38209;DHT22;24016;52.102;11.584;2023-06-14T11:13:16;26.50;84.60
38209;DHT22;24016;52.102;11.584;2023-06-14T11:15:47;27.40;84.10
38209;DHT22;24016;52.102;11.584;2023-06-14T11:18:13;27.90;83.60
38209;DHT22;24016;52.102;11.584;2023-06-14T11:20:39;28.50;80.60
38209;DHT22;24016;52.102;11.584;2023-06-14T11:23:05;28.90;80.40
38209;DHT22;24016;52.102;11.584;2023-06-14T11:25:31;28.00;80.80
38209;DHT22;24016;52.102;11.584;2023-06-14T11:27:57;26.90;80.60
38209;DHT22;24016;52.102;11.584;2023-06-14T11:30:24;26.60;83.30
38209;DHT22;24016;52.102;11.584;2023-06-14T11:32:51;27.20;82.70
38209;DHT22;24016;52.102;11.584;2023-06-14T11:35:18;27.90;80.30
38209;DHT22;24016;52.102;11.584;2023-06-14T11:37:44;27.40;80.60
38209;DHT22;24016;52.102;11.584;2023-06-14T11:40:11;26.60;80.10
38209;DHT22;24016;52.102;11.584;2023-06-14T11:42:38;25.70;80.50
38209;DHT22;24016;52.102;11.584;2023-06-14T11:45:07;25.10;83.10
38209;DHT22;24016;52.102;11.584;2023-06-14T11:47:36;24.50;83.10
38209;DHT22;24016;52.102;11.584;2023-06-14T11:50:04;24.40;85.20
38209;DHT22;24016;52.102;11.584;2023-06-14T11:52:30;24.40;86.60
38209;DHT22;24016;52.102;11.584;2023-06-14T11:54:56;24.90;84.60
38209;DHT22;24016;52.102;11.584;2023-06-14T11:57:22;25.90;83.10
38209;DHT22;24016;52.102;11.584;2023-06-14T11:59:48;26.20;82.60
38209;DHT22;24016;52.102;11.584;2023-06-14T12:02:18;26.30;81.40
38209;DHT22;24016;52.102;11.584;2023-06-14T12:04:46;26.70;80.40
38209;DHT22;24016;52.102;11.584;2023-06-14T12:07:13;26.20;81.00
38209;DHT22;24016;52.102;11.584;2023-06-14T12:12:25;27.00;80.90
38209;DHT22;24016;52.102;11.584;2023-06-14T12:14:52;26.60;81.60
38209;DHT22;24016;52.102;11.584;2023-06-14T12:17:18;27.20;80.40
38209;DHT22;24016;52.102;11.584;2023-06-14T12:19:46;27.90;78.70
38209;DHT22;24016;52.102;11.584;2023-06-14T12:22:13;27.30;79.10
38209;DHT22;24016;52.102;11.584;2023-06-14T12:24:39;26.20;79.90
38209;DHT22;24016;52.102;11.584;2023-06-14T12:27:08;26.40;80.20
38209;DHT22;24016;52.102;11.584;2023-06-14T12:29:33;27.20;81.10
38209;DHT22;24016;52.102;11.584;2023-06-14T12:31:59;27.40;78.30
38209;DHT22;24016;52.102;11.584;2023-06-14T12:34:25;27.00;79.00
38209;DHT22;24016;52.102;11.584;2023-06-14T12:36:52;26.40;79.00
38209;DHT22;24016;52.102;11.584;2023-06-14T12:39:18;26.40;80.20
38209;DHT22;24016;52.102;11.584;2023-06-14T12:41:44;26.80;79.30
38209;DHT22;24016;52.102;11.584;2023-06-14T12:44:13;27.00;77.20
38209;DHT22;24016;52.102;11.584;2023-06-14T12:46:40;26.60;79.20
38209;DHT22;24016;52.102;11.584;2023-06-14T12:49:08;26.10;79.60
38209;DHT22;24016;52.102;11.584;2023-06-14T12:51:34;25.50;81.10
38209;DHT22;24016;52.102;11.584;2023-06-14T12:54:00;24.90;80.80
38209;DHT22;24016;52.102;11.584;2023-06-14T12:56:25;24.50;82.70
38209;DHT22;24016;52.102;11.584;2023-06-14T12:58:51;24.20;82.70
38209;DHT22;24016;52.102;11.584;2023-06-14T13:01:17;23.80;83.90
38209;DHT22;24016;52.102;11.584;2023-06-14T13:03:42;23.70;83.60
38209;DHT22;24016;52.102;11.584;2023-06-14T13:06:08;23.60;85.20
38209;DHT22;24016;52.102;11.584;2023-06-14T13:08:34;23.40;83.80
38209;DHT22;24016;52.102;11.584;2023-06-14T13:10:59;23.30;83.00
38209;DHT22;24016;52.102;11.584;2023-06-14T13:13:25;23.10;82.80
38209;DHT22;24016;52.102;11.584;2023-06-14T13:15:51;23.00;85.50
38209;DHT22;24016;52.102;11.584;2023-06-14T13:18:17;22.90;85.10
38209;DHT22;24016;52.102;11.584;2023-06-14T13:20:42;22.90;85.20
38209;DHT22;24016;52.102;11.584;2023-06-14T13:23:09;22.90;84.60
38209;DHT22;24016;52.102;11.584;2023-06-14T13:25:36;22.80;84.60
38209;DHT22;24016;52.102;11.584;2023-06-14T13:28:03;22.80;86.50
38209;DHT22;24016;52.102;11.584;2023-06-14T13:30:32;22.80;86.20
38209;DHT22;24016;52.102;11.584;2023-06-14T13:32:58;22.80;86.90
38209;DHT22;24016;52.102;11.584;2023-06-14T13:35:24;22.80;86.20
38209;DHT22;24016;52.102;11.584;2023-06-14T13:37:50;22.60;86.20
38209;DHT22;24016;52.102;11.584;2023-06-14T13:40:16;22.50;85.80
38209;DHT22;24016;52.102;11.584;2023-06-14T13:42:42;22.50;86.30
38209;DHT22;24016;52.102;11.584;2023-06-14T13:45:09;22.40;84.90
38209;DHT22;24016;52.102;11.584;2023-06-14T13:47:37;22.40;86.20
38209;DHT22;24016;52.102;11.584;2023-06-14T13:50:03;22.60;86.40
38209;DHT22;24016;52.102;11.584;2023-06-14T13:52:40;22.80;85.00
38209;DHT22;24016;52.102;11.584;2023-06-14T13:55:11;23.00;85.90
38209;DHT22;24016;52.102;11.584;2023-06-14T13:57:40;23.20;84.90
38209;DHT22;24016;52.102;11.584;2023-06-14T14:00:06;23.40;85.00
38209;DHT22;24016;52.102;11.584;2023-06-14T14:02:31;23.60;82.90
38209;DHT22;24016;52.102;11.584;2023-06-14T14:04:57;23.80;83.40
38209;DHT22;24016;52.102;11.584;2023-06-14T14:07:22;23.80;84.70
38209;DHT22;24016;52.102;11.584;2023-06-14T14:09:49;23.90;82.80
38209;DHT22;24016;52.102;11.584;2023-06-14T14:12:14;24.20;83.30
38209;DHT22;24016;52.102;11.584;2023-06-14T14:14:40;24.20;84.00
38209;DHT22;24016;52.102;11.584;2023-06-14T14:17:06;24.30;83.70
38209;DHT22;24016;52.102;11.584;2023-06-14T14:19:32;24.60;83.40
38209;DHT22;24016;52.102;11.584;2023-06-14T14:21:58;25.00;81.30
38209;DHT22;24016;52.102;11.584;2023-06-14T14:24:23;25.00;80.30
38209;DHT22;24016;52.102;11.584;2023-06-14T14:26:49;25.20;79.90
38209;DHT22;24016;52.102;11.584;2023-06-14T14:29:15;25.10;80.70
38209;DHT22;24016;52.102;11.584;2023-06-14T14:31:41;25.10;79.60
38209;DHT22;24016;52.102;11.584;2023-06-14T14:34:06;25.00;79.10
38209;DHT22;24016;52.102;11.584;2023-06-14T14:36:32;24.70;79.80
38209;DHT22;24016;52.102;11.584;2023-06-14T14:39:03;24.50;80.30
38209;DHT22;24016;52.102;11.584;2023-06-14T14:41:29;24.10;80.10
38209;DHT22;24016;52.102;11.584;2023-06-14T14:43:54;24.10;80.60
38209;DHT22;24016;52.102;11.584;2023-06-14T14:46:20;24.20;79.10
38209;DHT22;24016;52.102;11.584;2023-06-14T14:48:46;24.20;79.90
38209;DHT22;24016;52.102;11.584;2023-06-14T14:51:11;24.30;81.60
38209;DHT22;24016;52.102;11.584;2023-06-14T14:53:37;24.10;80.10
38209;DHT22;24016;52.102;11.584;2023-06-14T14:56:02;24.00;80.10
38209;DHT22;24016;52.102;11.584;2023-06-14T14:58:28;24.00;78.80
38209;DHT22;24016;52.102;11.584;2023-06-14T15:00:53;24.10;79.50
38209;DHT22;24016;52.102;11.584;2023-06-14T15:03:19;24.00;78.00
38209;DHT22;24016;52.102;11.584;2023-06-14T15:05:45;23.90;79.60
38209;DHT22;24016;52.102;11.584;2023-06-14T15:08:10;23.80;78.50
38209;DHT22;24016;52.102;11.584;2023-06-14T15:10:38;23.80;78.00
38209;DHT22;24016;52.102;11.584;2023-06-14T15:13:09;23.60;78.90
38209;DHT22;24016;52.102;11.584;2023-06-14T15:15:36;23.50;78.70
38209;DHT22;24016;52.102;11.584;2023-06-14T15:18:02;23.70;79.70
38209;DHT22;24016;52.102;11.584;2023-06-14T15:20:27;23.80;78.70
38209;DHT22;24016;52.102;11.584;2023-06-14T15:22:54;23.90;78.70
38209;DHT22;24016;52.102;11.584;2023-06-14T15:25:27;24.20;78.80
38209;DHT22;24016;52.102;11.584;2023-06-14T15:27:53;24.40;77.90
38209;DHT22;24016;52.102;11.584;2023-06-14T15:30:19;24.70;78.10
38209;DHT22;24016;52.102;11.584;2023-06-14T15:32:45;24.70;79.00